Prescott, AZ (86301)

2:14 PM MST on July 23, 2016 (GMT -0700)
Prescott Heights | | Change Station

Elev 5305 ft 34.55 °N, 112.47 °W | Updated 3 seconds ago

Scattered Clouds
Scattered Clouds
94.0 °F
Feels Like 91 °F
N
5.0
Wind Variable Wind from NNW
Gusts 11.0 mph

Today
High -- | Low -- °F
--% Chance of Precip.
Yesterday
High -- | Low -- °F
Precip. -- in
Pressure 29.86 in
Visibility 10.0 miles
Clouds Scattered Clouds 10000 ft
Heat Index 91 °F
Dew Point 48 °F
Humidity 21%
Rainfall 0.00 in
Snow Depth Not available.
5:34 AM 7:38 PM
Waning Gibbous, 82% visible
METAR KPRC 232053Z 22011G17KT 10SM SCT100TCU 35/08 A3015 RMK AO2 SLP109 T03500078 58015
Pressure 29.86 in
Visibility 10.0 miles
Clouds Scattered Clouds 10000 ft
Heat Index 91 °F
Dew Point 48 °F
Humidity 21%
Rainfall 0.00 in
Snow Depth Not available.
5:34 AM 7:38 PM
Waning Gibbous, 82% visible
METAR KPRC 232053Z 22011G17KT 10SM SCT100TCU 35/08 A3015 RMK AO2 SLP109 T03500078 58015

10-Day Weather Forecast

Almanac

Astronomy

Jul. 23, 2016 Rise Set
Actual Time
Civil Twilight
Nautical Twilight
Astronomical Twilight
Moon
Length of Visible Light
Length of Day
Tomorrow will be .
, % of the Moon is Illuminated

Today's Extremes

State Highs State Lows

Community

WunderPhotos

Upload Photos

1,926,927 photos uploaded!

WunderBlog® & News

Nearby

Air Quality

  Air Quality AQ Index Pollutant
Not available.

Snow Depth

Station Depth Elevation

Earthquake Activity

City Distance Mag. Time & Date
Minimum magnitude displayed is 2.5.

Coastal Water Temperatures

Place Temperature

Stations

Nearby Weather Stations

Station Location Temp. Windchill Dew Point Humidity Wind Precip. Elev Updated Type
                   

Watches & Warnings

There are currently no watches in effect.